createdAt,value
2017-04-15T00:00:54.401Z,1004.69
2017-04-15T00:01:55.823Z,1004.68
2017-04-15T00:02:57.247Z,1004.65
2017-04-15T00:03:58.667Z,1004.69
2017-04-15T00:05:00.096Z,1004.64
2017-04-15T00:06:01.519Z,1004.72
2017-04-15T00:07:02.967Z,1004.70
2017-04-15T00:08:05.160Z,1004.68
2017-04-15T00:09:06.583Z,1004.72
2017-04-15T00:10:08.030Z,1004.70
2017-04-15T00:11:09.449Z,1004.69
2017-04-15T00:12:10.872Z,1004.68
2017-04-15T00:13:12.303Z,1004.70
2017-04-15T00:14:13.734Z,1004.70
2017-04-15T00:15:15.155Z,1004.64
2017-04-15T00:16:16.579Z,1004.66
2017-04-15T00:17:18.021Z,1004.64
2017-04-15T00:18:19.446Z,1004.63
2017-04-15T00:19:20.874Z,1004.62
2017-04-15T00:20:22.302Z,1004.61
2017-04-15T00:21:23.724Z,1004.58
2017-04-15T00:22:25.205Z,1004.53
2017-04-15T00:23:26.667Z,1004.54
2017-04-15T00:24:28.102Z,1004.50
2017-04-15T00:25:29.515Z,1004.51
2017-04-15T00:26:30.986Z,1004.49
2017-04-15T00:27:32.465Z,1004.45
2017-04-15T00:28:33.842Z,1004.45
2017-04-15T00:29:35.312Z,1004.39
2017-04-15T00:30:36.738Z,1004.42
2017-04-15T00:31:38.167Z,1004.43
2017-04-15T00:32:39.584Z,1004.39
2017-04-15T00:33:41.084Z,1004.34
2017-04-15T00:34:42.516Z,1004.35
2017-04-15T00:35:43.945Z,1004.33
2017-04-15T00:36:45.375Z,1004.35
2017-04-15T00:37:46.798Z,1004.38
2017-04-15T00:38:48.233Z,1004.36
2017-04-15T00:39:49.655Z,1004.32
2017-04-15T00:40:51.075Z,1004.32
2017-04-15T00:41:52.502Z,1004.29
2017-04-15T00:42:53.930Z,1004.29
2017-04-15T00:43:55.355Z,1004.29
2017-04-15T00:44:56.771Z,1004.26
2017-04-15T00:45:58.198Z,1004.22
2017-04-15T00:46:59.617Z,1004.19
2017-04-15T00:48:01.050Z,1004.20
2017-04-15T00:49:02.474Z,1004.23
2017-04-15T00:50:03.897Z,1004.22
2017-04-15T00:51:05.320Z,1004.24
2017-04-15T00:52:06.743Z,1004.18
2017-04-15T00:53:08.185Z,1004.14
2017-04-15T00:54:09.609Z,1004.16
2017-04-15T00:55:11.038Z,1004.11
2017-04-15T00:56:12.454Z,1004.15
2017-04-15T00:57:13.877Z,1004.13
2017-04-15T00:58:15.298Z,1004.10
2017-04-15T00:59:16.722Z,1004.09
2017-04-15T01:00:18.149Z,1004.06
2017-04-15T01:01:19.574Z,1004.08
2017-04-15T01:02:21.005Z,1004.04
2017-04-15T01:03:22.424Z,1004.05
2017-04-15T01:04:23.848Z,1004.03
2017-04-15T01:05:25.283Z,1004.05
2017-04-15T01:06:26.699Z,1004.04
2017-04-15T01:07:28.125Z,1004.03
2017-04-15T01:08:29.551Z,1003.99
2017-04-15T01:09:30.979Z,1004.01
2017-04-15T01:10:32.399Z,1004.03
2017-04-15T01:11:33.831Z,1004.03
2017-04-15T01:12:35.272Z,1004.09
2017-04-15T01:13:36.699Z,1004.02
2017-04-15T01:14:38.118Z,1004.02
2017-04-15T01:15:39.548Z,1004.01
2017-04-15T01:16:40.972Z,1004.02
2017-04-15T01:17:42.398Z,1003.98
2017-04-15T01:18:43.831Z,1004.03
2017-04-15T01:19:45.257Z,1004.01
2017-04-15T01:20:46.686Z,1003.95
2017-04-15T01:21:48.110Z,1003.95
2017-04-15T01:22:49.556Z,1003.91
2017-04-15T01:23:50.981Z,1003.92
2017-04-15T01:24:52.404Z,1003.92
2017-04-15T01:25:53.829Z,1003.90
2017-04-15T01:26:55.256Z,1003.90
2017-04-15T01:27:56.701Z,1003.88
2017-04-15T01:28:58.122Z,1003.89
2017-04-15T01:29:59.545Z,1003.87
2017-04-15T01:31:00.991Z,1003.93
2017-04-15T01:32:02.414Z,1003.87
2017-04-15T01:33:03.842Z,1003.88
2017-04-15T01:34:05.268Z,1003.87
2017-04-15T01:35:06.707Z,1003.89
2017-04-15T01:36:08.131Z,1003.88
2017-04-15T01:37:09.554Z,1003.90
2017-04-15T01:38:10.980Z,1003.86
2017-04-15T01:39:12.410Z,1003.90
2017-04-15T01:40:13.835Z,1003.92
2017-04-15T01:41:15.256Z,1003.95
2017-04-15T01:42:16.682Z,1003.91
2017-04-15T01:43:18.109Z,1003.90
2017-04-15T01:44:19.531Z,1003.84
2017-04-15T01:45:20.965Z,1003.87
2017-04-15T01:46:22.387Z,1003.82
2017-04-15T01:47:23.812Z,1003.87
2017-04-15T01:48:25.226Z,1003.84
2017-04-15T01:49:26.653Z,1003.83
2017-04-15T01:50:28.076Z,1003.80
2017-04-15T01:51:29.499Z,1003.83
2017-04-15T01:52:30.933Z,1003.80
2017-04-15T01:53:32.368Z,1003.78
2017-04-15T01:54:33.803Z,1003.86
2017-04-15T01:55:35.226Z,1003.79
2017-04-15T01:56:36.648Z,1003.81
2017-04-15T01:57:38.080Z,1003.78
2017-04-15T01:58:39.506Z,1003.78
2017-04-15T01:59:40.938Z,1003.81
2017-04-15T02:00:42.359Z,1003.79
2017-04-15T02:01:43.790Z,1003.80
2017-04-15T02:02:45.210Z,1003.76
2017-04-15T02:03:46.643Z,1003.82
2017-04-15T02:04:48.063Z,1003.77
2017-04-15T02:05:49.490Z,1003.77
2017-04-15T02:06:50.914Z,1003.78
2017-04-15T02:07:52.336Z,1003.78
2017-04-15T02:08:55.018Z,1003.74
2017-04-15T02:09:56.444Z,1003.77
2017-04-15T02:10:57.865Z,1003.75
2017-04-15T02:11:59.290Z,1003.72
2017-04-15T02:13:00.716Z,1003.76
2017-04-15T02:14:02.148Z,1003.74
2017-04-15T02:15:03.569Z,1003.74
2017-04-15T02:16:04.990Z,1003.72
2017-04-15T02:17:06.404Z,1003.72
2017-04-15T02:18:07.836Z,1003.78
2017-04-15T02:19:09.261Z,1003.71
2017-04-15T02:20:10.690Z,1003.77
2017-04-15T02:21:12.116Z,1003.77
2017-04-15T02:22:13.546Z,1003.71
2017-04-15T02:23:14.971Z,1003.73
2017-04-15T02:24:16.401Z,1003.71
2017-04-15T02:25:17.823Z,1003.76
2017-04-15T02:26:19.248Z,1003.75
2017-04-15T02:27:20.671Z,1003.67
2017-04-15T02:28:22.095Z,1003.67
2017-04-15T02:29:23.528Z,1003.62
2017-04-15T02:30:24.958Z,1003.64
2017-04-15T02:31:26.385Z,1003.63
2017-04-15T02:32:27.804Z,1003.62
2017-04-15T02:33:29.226Z,1003.63
2017-04-15T02:34:30.651Z,1003.58
2017-04-15T02:35:32.076Z,1003.57
2017-04-15T02:36:33.499Z,1003.57
2017-04-15T02:37:34.932Z,1003.56
2017-04-15T02:38:36.359Z,1003.53
2017-04-15T02:39:37.788Z,1003.54
2017-04-15T02:40:39.205Z,1003.45
2017-04-15T02:41:40.626Z,1003.46
2017-04-15T02:42:42.054Z,1003.42
2017-04-15T02:43:43.479Z,1003.43
2017-04-15T02:44:45.016Z,1003.34
2017-04-15T02:45:46.442Z,1003.30
2017-04-15T02:46:47.864Z,1003.34
2017-04-15T02:47:49.328Z,1003.31
2017-04-15T02:48:50.754Z,1003.35
2017-04-15T02:49:52.182Z,1003.33
2017-04-15T02:50:53.611Z,1003.32
2017-04-15T02:51:55.040Z,1003.31
2017-04-15T02:52:56.483Z,1003.30
2017-04-15T02:53:57.914Z,1003.36
2017-04-15T02:54:59.410Z,1003.31
2017-04-15T02:56:00.830Z,1003.37
2017-04-15T02:57:02.253Z,1003.30
2017-04-15T02:58:03.680Z,1003.33
2017-04-15T02:59:05.115Z,1003.29
2017-04-15T03:00:06.542Z,1003.27
2017-04-15T03:01:07.973Z,1003.33
2017-04-15T03:02:09.398Z,1003.27
2017-04-15T03:03:10.825Z,1003.22
2017-04-15T03:04:12.249Z,1003.22
2017-04-15T03:05:13.676Z,1003.19
2017-04-15T03:06:15.097Z,1003.23
2017-04-15T03:07:16.519Z,1003.23
2017-04-15T03:08:17.950Z,1003.28
2017-04-15T03:09:19.378Z,1003.25
2017-04-15T03:10:20.799Z,1003.20
2017-04-15T03:11:22.222Z,1003.30
2017-04-15T03:12:23.650Z,1003.21
2017-04-15T03:13:25.073Z,1003.21
2017-04-15T03:14:26.504Z,1003.14
2017-04-15T03:15:27.916Z,1003.18
2017-04-15T03:16:29.361Z,1003.14
2017-04-15T03:17:30.787Z,1003.13
2017-04-15T03:18:32.210Z,1003.13
2017-04-15T03:19:33.642Z,1003.08
2017-04-15T03:20:35.067Z,1003.10
2017-04-15T03:21:36.488Z,1003.11
2017-04-15T03:22:37.911Z,1003.07
2017-04-15T03:23:39.343Z,1003.07
2017-04-15T03:24:40.771Z,1003.01
2017-04-15T03:25:42.200Z,1003.02
2017-04-15T03:26:43.623Z,1003.04
2017-04-15T03:27:45.044Z,1002.99
2017-04-15T03:28:46.473Z,1002.99
2017-04-15T03:29:47.909Z,1003.05
2017-04-15T03:30:49.342Z,1002.98
2017-04-15T03:31:51.661Z,1003.01
2017-04-15T03:32:53.071Z,1002.95
2017-04-15T03:33:54.495Z,1002.98
2017-04-15T03:34:55.920Z,1002.99
2017-04-15T03:35:58.154Z,1002.98
2017-04-15T03:36:59.578Z,1002.97
2017-04-15T03:38:01.006Z,1002.95
2017-04-15T03:39:02.428Z,1002.99
2017-04-15T03:40:03.862Z,1002.96
2017-04-15T03:41:05.288Z,1002.97
2017-04-15T03:42:06.709Z,1002.97
2017-04-15T03:43:08.129Z,1002.98
2017-04-15T03:44:09.557Z,1002.91
2017-04-15T03:45:10.989Z,1002.90
2017-04-15T03:46:12.421Z,1002.94
2017-04-15T03:47:13.848Z,1002.96
2017-04-15T03:48:15.270Z,1002.98
2017-04-15T03:49:16.699Z,1002.85
2017-04-15T03:50:18.127Z,1002.88
2017-04-15T03:51:19.553Z,1002.94
2017-04-15T03:52:20.980Z,1002.97
2017-04-15T03:53:22.396Z,1002.91
2017-04-15T03:54:23.777Z,1002.85
2017-04-15T03:55:25.202Z,1002.81
2017-04-15T03:56:26.629Z,1002.91
2017-04-15T03:57:28.054Z,1002.90
2017-04-15T03:58:29.482Z,1002.93
2017-04-15T03:59:30.906Z,1002.91
2017-04-15T04:00:32.334Z,1002.90
2017-04-15T04:01:33.767Z,1002.93
2017-04-15T04:02:35.191Z,1002.94
2017-04-15T04:03:36.622Z,1002.90
2017-04-15T04:04:38.040Z,1002.92
2017-04-15T04:05:39.469Z,1002.93
2017-04-15T04:06:40.901Z,1002.94
2017-04-15T04:07:42.326Z,1002.96
2017-04-15T04:08:43.755Z,1002.93
2017-04-15T04:09:45.176Z,1002.91
2017-04-15T04:10:46.606Z,1002.91
2017-04-15T04:11:48.039Z,1002.91
2017-04-15T04:12:49.460Z,1002.90
2017-04-15T04:13:50.879Z,1002.91
2017-04-15T04:14:52.309Z,1002.93
2017-04-15T04:15:53.689Z,1002.90
2017-04-15T04:16:55.115Z,1002.90
2017-04-15T04:17:56.541Z,1002.87
2017-04-15T04:18:57.966Z,1002.90
2017-04-15T04:19:59.399Z,1002.90
2017-04-15T04:21:00.833Z,1002.88
2017-04-15T04:22:02.262Z,1002.85
2017-04-15T04:23:03.684Z,1002.86
2017-04-15T04:24:05.107Z,1002.92
2017-04-15T04:25:06.537Z,1002.86
2017-04-15T04:26:07.961Z,1002.81
2017-04-15T04:27:09.385Z,1002.79
2017-04-15T04:28:10.817Z,1002.79
2017-04-15T04:29:12.243Z,1002.79
2017-04-15T04:30:13.669Z,1002.79
2017-04-15T04:31:15.153Z,1002.77
2017-04-15T04:32:16.585Z,1002.76
2017-04-15T04:33:18.011Z,1002.76
2017-04-15T04:34:19.440Z,1002.71
2017-04-15T04:35:20.872Z,1002.74
2017-04-15T04:36:22.297Z,1002.68
2017-04-15T04:37:23.739Z,1002.71
2017-04-15T04:38:25.105Z,1002.71
2017-04-15T04:39:26.527Z,1002.71
2017-04-15T04:40:27.958Z,1002.73
2017-04-15T04:41:29.381Z,1002.71
2017-04-15T04:42:30.803Z,1002.63
2017-04-15T04:43:32.230Z,1002.66
2017-04-15T04:44:33.660Z,1002.67
2017-04-15T04:45:35.083Z,1002.64
2017-04-15T04:46:36.505Z,1002.66
2017-04-15T04:47:37.944Z,1002.66
2017-04-15T04:48:39.368Z,1002.67
2017-04-15T04:49:42.721Z,1002.75
2017-04-15T04:50:44.156Z,1002.74
2017-04-15T04:51:45.585Z,1002.67
2017-04-15T04:52:47.017Z,1002.63
2017-04-15T04:53:48.447Z,1002.66
2017-04-15T04:54:49.875Z,1002.67
2017-04-15T04:55:51.302Z,1002.68
2017-04-15T04:56:52.730Z,1002.69
2017-04-15T04:57:54.156Z,1002.65
2017-04-15T04:58:55.581Z,1002.62
2017-04-15T04:59:57.008Z,1002.57
2017-04-15T05:00:58.443Z,1002.65
2017-04-15T05:01:59.860Z,1002.63
2017-04-15T05:03:01.295Z,1002.73
2017-04-15T05:04:02.727Z,1002.69
2017-04-15T05:05:04.151Z,1002.74
2017-04-15T05:06:05.579Z,1002.72
2017-04-15T05:07:07.015Z,1002.71
2017-04-15T05:08:08.435Z,1002.68
2017-04-15T05:09:09.870Z,1002.65
2017-04-15T05:10:11.297Z,1002.72
2017-04-15T05:11:12.698Z,1002.78
2017-04-15T05:12:14.110Z,1002.80
2017-04-15T05:13:15.541Z,1002.77
2017-04-15T05:14:16.968Z,1002.88
2017-04-15T05:15:18.389Z,1002.90
2017-04-15T05:16:19.817Z,1002.86
2017-04-15T05:17:21.247Z,1002.90
2017-04-15T05:18:22.675Z,1002.82
2017-04-15T05:19:24.104Z,1002.83
2017-04-15T05:20:25.532Z,1002.78
2017-04-15T05:21:26.956Z,1002.79
2017-04-15T05:22:28.383Z,1002.85
2017-04-15T05:23:29.819Z,1002.77
2017-04-15T05:24:31.246Z,1002.83
2017-04-15T05:25:32.680Z,1002.80
2017-04-15T05:26:34.104Z,1002.88
2017-04-15T05:27:35.527Z,1002.82
2017-04-15T05:28:36.965Z,1002.78
2017-04-15T05:29:38.385Z,1002.84
2017-04-15T05:30:39.819Z,1002.80
2017-04-15T05:31:41.251Z,1002.83
2017-04-15T05:32:42.690Z,1002.83
2017-04-15T05:33:44.115Z,1002.82
2017-04-15T05:34:45.535Z,1002.83
2017-04-15T05:35:46.966Z,1002.91
2017-04-15T05:36:48.386Z,1002.90
2017-04-15T05:37:49.806Z,1002.91
2017-04-15T05:38:51.237Z,1002.91
2017-04-15T05:39:52.671Z,1002.90
2017-04-15T05:40:54.098Z,1002.94
2017-04-15T05:41:55.527Z,1002.98
2017-04-15T05:42:56.955Z,1003.01
2017-04-15T05:43:58.387Z,1003.02
2017-04-15T05:44:59.810Z,1002.93
2017-04-15T05:46:01.241Z,1002.97
2017-04-15T05:47:02.668Z,1002.92
2017-04-15T05:48:04.093Z,1002.89
2017-04-15T05:49:05.519Z,1002.96
2017-04-15T05:50:06.942Z,1002.94
2017-04-15T05:51:08.366Z,1002.98
2017-04-15T05:52:09.790Z,1002.97
2017-04-15T05:53:11.223Z,1002.90
2017-04-15T05:54:12.651Z,1002.96
2017-04-15T05:55:14.084Z,1002.94
2017-04-15T05:56:15.505Z,1002.96
2017-04-15T05:57:16.936Z,1002.98
2017-04-15T05:58:18.370Z,1003.01
2017-04-15T05:59:19.807Z,1002.97
2017-04-15T06:00:21.225Z,1002.95
2017-04-15T06:01:22.613Z,1002.95
2017-04-15T06:02:24.032Z,1003.00
2017-04-15T06:03:25.465Z,1002.99
2017-04-15T06:04:26.896Z,1002.97
2017-04-15T06:05:28.322Z,1002.97
2017-04-15T06:06:29.757Z,1002.94
2017-04-15T06:07:31.179Z,1003.03
2017-04-15T06:08:32.603Z,1002.99
2017-04-15T06:09:34.029Z,1003.01
2017-04-15T06:10:35.464Z,1003.03
2017-04-15T06:11:36.885Z,1003.03
2017-04-15T06:12:38.310Z,1003.01
2017-04-15T06:13:39.729Z,1003.01
2017-04-15T06:14:41.162Z,1003.01
2017-04-15T06:15:42.593Z,1003.06
2017-04-15T06:16:44.022Z,1003.12
2017-04-15T06:17:45.448Z,1003.11
2017-04-15T06:18:46.881Z,1003.07
2017-04-15T06:19:48.311Z,1003.08
2017-04-15T06:20:49.742Z,1003.09
2017-04-15T06:21:51.173Z,1003.08
2017-04-15T06:22:52.606Z,1003.13
2017-04-15T06:23:54.030Z,1003.15
2017-04-15T06:24:55.936Z,1003.16
2017-04-15T06:25:57.492Z,1003.16
2017-04-15T06:26:58.913Z,1003.10
2017-04-15T06:28:00.343Z,1003.17
2017-04-15T06:29:01.774Z,1003.13
2017-04-15T06:30:03.202Z,1003.16
2017-04-15T06:31:04.634Z,1003.11
2017-04-15T06:32:06.059Z,1003.13
2017-04-15T06:33:07.496Z,1003.18
2017-04-15T06:34:09.050Z,1003.16
2017-04-15T06:35:10.483Z,1003.14
2017-04-15T06:36:11.907Z,1003.14
2017-04-15T06:37:13.343Z,1003.08
2017-04-15T06:38:14.774Z,1003.17
2017-04-15T06:39:16.201Z,1003.13
2017-04-15T06:40:17.581Z,1003.15
2017-04-15T06:41:19.016Z,1003.15
2017-04-15T06:42:20.441Z,1003.15
2017-04-15T06:43:21.870Z,1003.18
2017-04-15T06:44:23.299Z,1003.13
2017-04-15T06:45:25.668Z,1003.14
2017-04-15T06:46:27.090Z,1003.05
2017-04-15T06:47:29.207Z,1003.08
2017-04-15T06:48:30.635Z,1003.12
2017-04-15T06:49:32.064Z,1003.13
2017-04-15T06:50:33.489Z,1003.09
2017-04-15T06:51:34.924Z,1003.13
2017-04-15T06:52:36.343Z,1003.09
2017-04-15T06:53:37.774Z,1003.13
2017-04-15T06:54:39.264Z,1003.14
2017-04-15T06:55:40.690Z,1003.15
2017-04-15T06:56:42.123Z,1003.17
2017-04-15T06:57:43.553Z,1003.20
2017-04-15T06:58:45.107Z,1003.20
2017-04-15T06:59:46.539Z,1003.22
2017-04-15T07:00:47.969Z,1003.13
2017-04-15T07:01:49.399Z,1003.19
2017-04-15T07:02:51.333Z,1003.24
2017-04-15T07:03:52.217Z,1003.25
2017-04-15T07:04:53.642Z,1003.30
2017-04-15T07:05:55.069Z,1003.33
2017-04-15T07:06:56.491Z,1003.31
2017-04-15T07:07:57.919Z,1003.39
2017-04-15T07:08:59.378Z,1003.38
2017-04-15T07:10:00.803Z,1003.40
2017-04-15T07:11:02.226Z,1003.43
2017-04-15T07:12:03.656Z,1003.38
2017-04-15T07:13:05.091Z,1003.37
2017-04-15T07:14:06.530Z,1003.39
2017-04-15T07:15:07.960Z,1003.43
2017-04-15T07:16:09.408Z,1003.40
2017-04-15T07:17:10.818Z,1003.40
2017-04-15T07:18:12.245Z,1003.40
2017-04-15T07:19:13.672Z,1003.47
2017-04-15T07:20:15.103Z,1003.46
2017-04-15T07:21:16.532Z,1003.44
2017-04-15T07:22:17.957Z,1003.42
2017-04-15T07:23:22.676Z,1003.38
2017-04-15T07:24:27.296Z,1003.40
2017-04-15T07:25:30.658Z,1003.50
2017-04-15T07:26:33.627Z,1003.42
2017-04-15T07:27:37.465Z,1003.43
2017-04-15T07:28:40.688Z,1003.52
2017-04-15T07:29:43.928Z,1003.48
2017-04-15T07:30:45.856Z,1003.46
2017-04-15T07:31:47.231Z,1003.48
2017-04-15T07:32:48.660Z,1003.48
2017-04-15T07:33:50.087Z,1003.50
2017-04-15T07:34:51.515Z,1003.57
2017-04-15T07:35:52.940Z,1003.51
2017-04-15T07:36:54.374Z,1003.53
2017-04-15T07:37:55.802Z,1003.53
2017-04-15T07:38:57.232Z,1003.48
2017-04-15T07:39:58.663Z,1003.48
2017-04-15T07:41:00.098Z,1003.51
2017-04-15T07:42:01.519Z,1003.56
2017-04-15T07:43:02.949Z,1003.53
2017-04-15T07:44:04.387Z,1003.57
2017-04-15T07:45:05.816Z,1003.60
2017-04-15T07:46:07.245Z,1003.54
2017-04-15T07:47:08.671Z,1003.55
2017-04-15T07:48:10.101Z,1003.54
2017-04-15T07:49:11.532Z,1003.53
2017-04-15T07:50:12.964Z,1003.57
2017-04-15T07:51:14.392Z,1003.61
2017-04-15T07:52:15.817Z,1003.52
2017-04-15T07:53:17.252Z,1003.58
2017-04-15T07:54:18.712Z,1003.55
2017-04-15T07:55:20.136Z,1003.65
2017-04-15T07:56:21.564Z,1003.65
2017-04-15T07:57:23.840Z,1003.62
2017-04-15T07:58:25.258Z,1003.64
2017-04-15T07:59:26.695Z,1003.60
2017-04-15T08:00:28.125Z,1003.69
2017-04-15T08:01:29.558Z,1003.72
2017-04-15T08:02:30.978Z,1003.69
2017-04-15T08:03:32.413Z,1003.69
2017-04-15T08:04:33.847Z,1003.74
2017-04-15T08:05:35.275Z,1003.71
2017-04-15T08:06:36.699Z,1003.76
2017-04-15T08:07:38.131Z,1003.74
2017-04-15T08:08:39.560Z,1003.76
2017-04-15T08:09:40.995Z,1003.80
2017-04-15T08:10:42.423Z,1003.75
2017-04-15T08:11:43.851Z,1003.81
2017-04-15T08:12:45.279Z,1003.80
2017-04-15T08:13:46.711Z,1003.75
2017-04-15T08:14:48.144Z,1003.83
2017-04-15T08:15:49.575Z,1003.83
2017-04-15T08:16:50.999Z,1003.79
2017-04-15T08:17:52.432Z,1003.78
2017-04-15T08:18:53.864Z,1003.87
2017-04-15T08:19:55.289Z,1003.85
2017-04-15T08:20:56.719Z,1003.89
2017-04-15T08:22:00.775Z,1003.91
2017-04-15T08:23:02.136Z,1003.92
2017-04-15T08:24:04.206Z,1003.95
2017-04-15T08:25:05.643Z,1003.96
2017-04-15T08:26:07.818Z,1003.94
2017-04-15T08:27:09.245Z,1003.90
2017-04-15T08:28:10.669Z,1003.93
2017-04-15T08:29:12.104Z,1003.94
2017-04-15T08:30:13.531Z,1003.90
2017-04-15T08:31:14.972Z,1003.93
2017-04-15T08:32:16.402Z,1003.93
2017-04-15T08:33:17.838Z,1003.93
2017-04-15T08:34:19.271Z,1003.94
2017-04-15T08:35:20.705Z,1003.88
2017-04-15T08:36:22.130Z,1003.92
2017-04-15T08:37:23.565Z,1003.96
2017-04-15T08:38:24.991Z,1003.92
2017-04-15T08:39:26.425Z,1003.91
2017-04-15T08:40:27.858Z,1003.96
2017-04-15T08:41:29.962Z,1003.97
2017-04-15T08:42:31.396Z,1003.94
2017-04-15T08:43:32.839Z,1004.00
2017-04-15T08:44:34.277Z,1003.96
2017-04-15T08:45:35.707Z,1003.99
2017-04-15T08:46:37.175Z,1004.00
2017-04-15T08:47:38.604Z,1004.04
2017-04-15T08:48:40.038Z,1004.05
2017-04-15T08:49:41.471Z,1004.01
2017-04-15T08:50:42.903Z,1004.06
2017-04-15T08:51:44.338Z,1004.06
2017-04-15T08:52:45.768Z,1004.04
2017-04-15T08:53:47.362Z,1004.09
2017-04-15T08:54:48.787Z,1004.09
2017-04-15T08:55:50.213Z,1004.06
2017-04-15T08:56:51.645Z,1004.12
2017-04-15T08:57:53.080Z,1004.05
2017-04-15T08:58:54.509Z,1004.08
2017-04-15T08:59:55.963Z,1004.07
2017-04-15T09:00:57.373Z,1004.17
2017-04-15T09:01:58.877Z,1004.15
2017-04-15T09:03:00.313Z,1004.18
2017-04-15T09:04:01.755Z,1004.10
2017-04-15T09:05:03.239Z,1004.12
2017-04-15T09:06:04.673Z,1004.02
2017-04-15T09:07:06.099Z,1004.09
2017-04-15T09:08:07.532Z,1004.12
2017-04-15T09:09:08.985Z,1004.10
2017-04-15T09:10:10.411Z,1004.10
2017-04-15T09:11:11.840Z,1004.10
2017-04-15T09:12:13.318Z,1004.09
2017-04-15T09:13:14.755Z,1004.14
2017-04-15T09:14:16.186Z,1004.13
2017-04-15T09:15:17.620Z,1004.13
2017-04-15T09:16:19.043Z,1004.16
2017-04-15T09:17:20.467Z,1004.15
2017-04-15T09:18:21.898Z,1004.18
2017-04-15T09:19:23.329Z,1004.18
2017-04-15T09:20:24.764Z,1004.20
2017-04-15T09:21:26.195Z,1004.27
2017-04-15T09:22:27.622Z,1004.18
2017-04-15T09:23:29.154Z,1004.27
2017-04-15T09:24:30.585Z,1004.21
2017-04-15T09:25:32.021Z,1004.26
2017-04-15T09:26:33.458Z,1004.25
2017-04-15T09:27:34.969Z,1004.25
2017-04-15T09:28:36.401Z,1004.24
2017-04-15T09:29:37.832Z,1004.27
2017-04-15T09:30:39.262Z,1004.25
2017-04-15T09:31:40.688Z,1004.33
2017-04-15T09:32:42.147Z,1004.28
2017-04-15T09:33:43.572Z,1004.30
2017-04-15T09:34:45.015Z,1004.29
2017-04-15T09:35:46.450Z,1004.26
2017-04-15T09:36:47.870Z,1004.27
2017-04-15T09:37:49.304Z,1004.33
2017-04-15T09:38:50.758Z,1004.30
2017-04-15T09:39:52.181Z,1004.24
2017-04-15T09:40:53.611Z,1004.29
2017-04-15T09:41:55.044Z,1004.30
2017-04-15T09:42:56.475Z,1004.30
2017-04-15T09:43:57.914Z,1004.30
2017-04-15T09:44:59.344Z,1004.32
2017-04-15T09:46:00.775Z,1004.27
2017-04-15T09:47:02.158Z,1004.30
2017-04-15T09:48:03.596Z,1004.27
2017-04-15T09:49:05.022Z,1004.29
2017-04-15T09:50:06.464Z,1004.25
2017-04-15T09:51:07.888Z,1004.30
2017-04-15T09:52:09.313Z,1004.33
2017-04-15T09:53:10.749Z,1004.27
2017-04-15T09:54:12.759Z,1004.28
2017-04-15T09:55:14.194Z,1004.29
2017-04-15T09:56:15.628Z,1004.23
2017-04-15T09:57:17.053Z,1004.26
2017-04-15T09:58:18.487Z,1004.28
2017-04-15T09:59:19.916Z,1004.27
2017-04-15T10:00:21.353Z,1004.28
2017-04-15T10:01:22.776Z,1004.28
2017-04-15T10:02:24.214Z,1004.26
2017-04-15T10:03:25.644Z,1004.29
2017-04-15T10:04:27.076Z,1004.32
2017-04-15T10:05:28.504Z,1004.31
2017-04-15T10:06:29.934Z,1004.31
2017-04-15T10:07:31.367Z,1004.28
2017-04-15T10:08:32.801Z,1004.24
2017-04-15T10:09:34.234Z,1004.26
2017-04-15T10:10:35.665Z,1004.27
2017-04-15T10:11:37.105Z,1004.35
2017-04-15T10:12:38.530Z,1004.29
2017-04-15T10:13:39.957Z,1004.32
2017-04-15T10:14:41.379Z,1004.30
2017-04-15T10:15:42.816Z,1004.29
2017-04-15T10:16:44.242Z,1004.25
2017-04-15T10:17:45.680Z,1004.27
2017-04-15T10:18:47.115Z,1004.24
2017-04-15T10:19:48.544Z,1004.26
2017-04-15T10:20:49.971Z,1004.26
2017-04-15T10:21:51.403Z,1004.27
2017-04-15T10:22:52.881Z,1004.27
2017-04-15T10:23:54.323Z,1004.25
2017-04-15T10:24:55.749Z,1004.31
2017-04-15T10:25:57.244Z,1004.42
2017-04-15T10:26:58.701Z,1004.48
2017-04-15T10:28:00.131Z,1004.48
2017-04-15T10:29:01.569Z,1004.50
2017-04-15T10:30:03.004Z,1004.49
2017-04-15T10:31:04.436Z,1004.46
2017-04-15T10:32:05.872Z,1004.42
2017-04-15T10:33:07.308Z,1004.51
2017-04-15T10:34:08.841Z,1004.52
2017-04-15T10:35:10.268Z,1004.45
2017-04-15T10:36:11.694Z,1004.52
2017-04-15T10:37:13.128Z,1004.52
2017-04-15T10:38:14.556Z,1004.48
2017-04-15T10:39:15.991Z,1004.48
2017-04-15T10:40:17.475Z,1004.56
2017-04-15T10:41:18.952Z,1004.45
2017-04-15T10:42:20.385Z,1004.49
2017-04-15T10:43:21.812Z,1004.52
2017-04-15T10:44:23.260Z,1004.48
2017-04-15T10:45:24.682Z,1004.49
2017-04-15T10:46:26.115Z,1004.48
2017-04-15T10:47:27.544Z,1004.53
2017-04-15T10:48:28.932Z,1004.52
2017-04-15T10:49:30.356Z,1004.51
2017-04-15T10:50:31.790Z,1004.45
2017-04-15T10:51:33.216Z,1004.45
2017-04-15T10:52:34.650Z,1004.53
2017-04-15T10:53:36.082Z,1004.48
2017-04-15T10:54:37.522Z,1004.51
2017-04-15T10:55:38.954Z,1004.55
2017-04-15T10:56:41.126Z,1004.53
2017-04-15T10:57:42.555Z,1004.47
2017-04-15T10:58:43.986Z,1004.51
2017-04-15T10:59:45.406Z,1004.50
2017-04-15T11:00:46.845Z,1004.52
2017-04-15T11:01:49.090Z,1004.52
2017-04-15T11:02:50.536Z,1004.48
2017-04-15T11:03:51.957Z,1004.49
2017-04-15T11:04:53.387Z,1004.46
2017-04-15T11:05:54.813Z,1004.45
2017-04-15T11:06:56.240Z,1004.44
2017-04-15T11:07:57.675Z,1004.49
2017-04-15T11:08:59.108Z,1004.49
2017-04-15T11:10:00.535Z,1004.53
2017-04-15T11:11:01.985Z,1004.53
2017-04-15T11:12:03.389Z,1004.54
2017-04-15T11:13:04.815Z,1004.56
2017-04-15T11:14:06.257Z,1004.62
2017-04-15T11:15:07.680Z,1004.61
2017-04-15T11:16:09.113Z,1004.64
2017-04-15T11:17:10.541Z,1004.63
2017-04-15T11:18:11.965Z,1004.67
2017-04-15T11:19:13.395Z,1004.60
2017-04-15T11:20:14.830Z,1004.62
2017-04-15T11:21:16.273Z,1004.69
2017-04-15T11:22:17.692Z,1004.72
2017-04-15T11:23:19.154Z,1004.69
2017-04-15T11:24:20.585Z,1004.73
2017-04-15T11:25:22.013Z,1004.79
2017-04-15T11:26:23.446Z,1004.80
2017-04-15T11:27:24.921Z,1004.80
2017-04-15T11:28:26.348Z,1004.83
2017-04-15T11:29:27.803Z,1004.81
2017-04-15T11:30:29.256Z,1004.76
2017-04-15T11:31:30.695Z,1004.71
2017-04-15T11:32:32.121Z,1004.73
2017-04-15T11:33:33.557Z,1004.72
2017-04-15T11:34:34.987Z,1004.74
2017-04-15T11:35:36.421Z,1004.75
2017-04-15T11:36:37.859Z,1004.72
2017-04-15T11:37:39.353Z,1004.72
2017-04-15T11:38:40.801Z,1004.67
2017-04-15T11:39:42.213Z,1004.67
2017-04-15T11:40:43.644Z,1004.68
2017-04-15T11:41:45.074Z,1004.64
2017-04-15T11:42:46.508Z,1004.69
2017-04-15T11:43:47.937Z,1004.64
2017-04-15T11:44:49.393Z,1004.62
2017-04-15T11:45:50.880Z,1004.55
2017-04-15T11:46:52.309Z,1004.59
2017-04-15T11:47:53.737Z,1004.58
2017-04-15T11:48:55.171Z,1004.56
2017-04-15T11:49:56.613Z,1004.55
2017-04-15T11:50:58.046Z,1004.56
2017-04-15T11:51:59.478Z,1004.61
2017-04-15T11:53:00.916Z,1004.59
2017-04-15T11:54:02.350Z,1004.66
2017-04-15T11:55:03.775Z,1004.63
2017-04-15T11:56:05.212Z,1004.60
2017-04-15T11:57:06.640Z,1004.63
2017-04-15T11:58:08.072Z,1004.61
2017-04-15T11:59:09.498Z,1004.53
2017-04-15T12:00:10.939Z,1004.58
2017-04-15T12:01:12.359Z,1004.61
2017-04-15T12:02:13.798Z,1004.65
2017-04-15T12:03:15.242Z,1004.64
2017-04-15T12:04:16.668Z,1004.60
2017-04-15T12:05:18.095Z,1004.64
2017-04-15T12:06:19.520Z,1004.64
2017-04-15T12:07:20.954Z,1004.64
2017-04-15T12:08:22.384Z,1004.66
2017-04-15T12:09:23.813Z,1004.59
2017-04-15T12:10:25.242Z,1004.62
2017-04-15T12:11:26.669Z,1004.62
2017-04-15T12:12:28.118Z,1004.67
2017-04-15T12:13:29.545Z,1004.65
2017-04-15T12:14:30.968Z,1004.68
2017-04-15T12:15:32.397Z,1004.66
2017-04-15T12:16:33.837Z,1004.70
2017-04-15T12:17:35.272Z,1004.64
2017-04-15T12:18:36.697Z,1004.64
2017-04-15T12:19:38.133Z,1004.66
2017-04-15T12:20:39.560Z,1004.64
2017-04-15T12:21:40.988Z,1004.67
2017-04-15T12:22:42.416Z,1004.59
2017-04-15T12:23:43.855Z,1004.63